Time;durP1;ratioP1;P1;durP2;ratioP2;P2;SDS_P1;SDS_P2;PMS_P1;PMS_P2;Temp;Humidity;BMP_temperature;BMP_pressure;BME280_temperature;BME280_humidity;BME280_pressure;Samples;Min_cycle;Max_cycle;Signal;HPM_P1;HPM_P2
2022/11/20 00:02:30;;;;;;;;;;;;;;;;;;5111568;27;19916;-67
2022/11/20 00:04:56;;;;;;;;;;;;;;;;;;5111851;28;19918;-67
2022/11/20 00:08:23;;;;;;;;;;;;;;;;;;5091685;27;19917;-66
2022/11/20 00:12:51;;;;;;;;;;;;;;;;;;5051934;28;19923;-66
2022/11/20 00:15:17;;;;;;;;;;;;;;;;;;5049919;28;20003;-67
2022/11/20 00:17:43;;;;;;;;;;;;;;;;;;5050816;28;19956;-67
2022/11/20 00:20:09;;;;;;;;;;;;;;;;;;5051103;28;19955;-66
2022/11/20 00:22:35;;;;;;;;;;;;;;;;;;5051033;28;19935;-66
2022/11/20 00:25:01;;;;;;;;;;;;;;;;;;5050566;28;19913;-66
2022/11/20 00:27:27;;;;;;;;;;;;;;;;;;5050971;28;19931;-67
2022/11/20 00:29:53;;;;;;;;;;;;;;;;;;5050891;28;19935;-66
2022/11/20 00:32:19;;;;;;;;;;;;;;;;;;5050359;28;19917;-66
2022/11/20 00:34:45;;;;;;;;;;;;;;;;;;5050744;28;19909;-66
2022/11/20 00:37:11;;;;;;;;;;;;;;;;;;5050281;28;19920;-66
2022/11/20 00:39:37;;;;;;;;;;;;;;;;;;5050785;28;20020;-66
2022/11/20 00:45:59;;;;;;;;;;;;;;;;;;5091043;27;19916;-66
2022/11/20 00:48:25;;;;;;;;;;;;;;;;;;5091385;28;20003;-66
2022/11/20 00:53:01;;;;;;;;;;;;;;;;;;5091087;27;19916;-66
2022/11/20 00:55:27;;;;;;;;;;;;;;;;;;5091381;28;20444;-66
2022/11/20 00:57:53;;;;;;;;;;;;;;;;;;5090097;28;19987;-66
2022/11/20 01:02:49;;;;;;;;;;;;;;;;;;5091541;27;19913;-66
2022/11/20 01:05:15;;;;;;;;;;;;;;;;;;5089687;28;20337;-66
2022/11/20 01:16:02;;;;;;;;;;;;;;;;;;5112712;27;19922;-66
2022/11/20 01:18:28;;;;;;;;;;;;;;;;;;5111706;28;19916;-66
2022/11/20 01:27:34;;;;;;;;;;;;;;;;;;5091381;28;19922;-66
2022/11/20 01:30:00;;;;;;;;;;;;;;;;;;5091459;28;19999;-66
2022/11/20 01:32:26;;;;;;;;;;;;;;;;;;5091301;28;19953;-66
2022/11/20 01:35:54;;;;;;;;;;;;;;;;;;5111982;27;19922;-66
2022/11/20 01:40:24;;;;;;;;;;;;;;;;;;5091773;27;19923;-66
2022/11/20 01:43:43;;;;;;;;;;;;;;;;;;5112399;27;20375;-66
2022/11/20 01:46:09;;;;;;;;;;;;;;;;;;5111770;28;20003;-66
2022/11/20 01:53:48;;;;;;;;;;;;;;;;;;5111919;27;19916;-66
2022/11/20 01:58:28;;;;;;;;;;;;;;;;;;5112507;27;19916;-66
2022/11/20 02:05:15;;;;;;;;;;;;;;;;;;5152922;27;19911;-66
2022/11/20 02:07:41;;;;;;;;;;;;;;;;;;5152923;27;19966;-66
2022/11/20 02:11:46;;;;;;;;;;;;;;;;;;5173990;27;19918;-66
2022/11/20 02:14:12;;;;;;;;;;;;;;;;;;5173745;27;19918;-66
2022/11/20 02:18:27;;;;;;;;;;;;;;;;;;5111757;27;20368;-66
2022/11/20 02:21:06;;;;;;;;;;;;;;;;;;5111909;27;19912;-66
2022/11/20 02:23:32;;;;;;;;;;;;;;;;;;5111391;28;20010;-66
2022/11/20 02:27:13;;;;;;;;;;;;;;;;;;5091626;27;19922;-66
2022/11/20 02:29:39;;;;;;;;;;;;;;;;;;5091158;28;20015;-66
2022/11/20 02:32:05;;;;;;;;;;;;;;;;;;5091520;28;19909;-66
2022/11/20 02:34:31;;;;;;;;;;;;;;;;;;5091287;28;19915;-66
2022/11/20 02:37:13;;;;;;;;;;;;;;;;;;5173880;27;20351;-66
2022/11/20 02:39:39;;;;;;;;;;;;;;;;;;5173819;27;19954;-66
2022/11/20 02:44:17;;;;;;;;;;;;;;;;;;5173432;27;20009;-66
2022/11/20 02:46:43;;;;;;;;;;;;;;;;;;5174009;27;19961;-66
2022/11/20 02:51:21;;;;;;;;;;;;;;;;;;5091118;27;19917;-66
2022/11/20 02:53:47;;;;;;;;;;;;;;;;;;5091425;28;20428;-66
2022/11/20 02:56:13;;;;;;;;;;;;;;;;;;5090059;28;19908;-66
2022/11/20 02:58:39;;;;;;;;;;;;;;;;;;5090968;28;20418;-66
2022/11/20 03:02:06;;;;;;;;;;;;;;;;;;5111780;27;19916;-66
2022/11/20 03:04:32;;;;;;;;;;;;;;;;;;5111766;28;20007;-66
2022/11/20 03:09:17;;;;;;;;;;;;;;;;;;5091506;28;19919;-66
2022/11/20 03:11:43;;;;;;;;;;;;;;;;;;5091107;28;20002;-66
2022/11/20 03:14:09;;;;;;;;;;;;;;;;;;5091347;28;19908;-66
2022/11/20 03:16:35;;;;;;;;;;;;;;;;;;5091337;28;19987;-66
2022/11/20 03:19:01;;;;;;;;;;;;;;;;;;5091357;28;19908;-66
2022/11/20 03:21:44;;;;;;;;;;;;;;;;;;5112638;27;20371;-66
2022/11/20 03:24:10;;;;;;;;;;;;;;;;;;5111758;28;19999;-67
2022/11/20 03:26:36;;;;;;;;;;;;;;;;;;5111318;28;19908;-66
2022/11/20 03:29:02;;;;;;;;;;;;;;;;;;5111714;28;19908;-66
2022/11/20 03:33:29;;;;;;;;;;;;;;;;;;5091163;27;19922;-66
2022/11/20 03:35:55;;;;;;;;;;;;;;;;;;5091397;28;20010;-66
2022/11/20 03:41:05;;;;;;;;;;;;;;;;;;5111759;27;20413;-66
2022/11/20 03:43:31;;;;;;;;;;;;;;;;;;5111785;28;19998;-66
2022/11/20 03:45:57;;;;;;;;;;;;;;;;;;5111779;28;20333;-66
2022/11/20 03:50:15;;;;;;;;;;;;;;;;;;5092295;27;19923;-66
2022/11/20 03:52:41;;;;;;;;;;;;;;;;;;5091651;28;20000;-66
2022/11/20 03:55:07;;;;;;;;;;;;;;;;;;5090940;28;20007;-66
2022/11/20 03:57:33;;;;;;;;;;;;;;;;;;5090036;28;19915;-66
2022/11/20 03:59:58;;;;;;;;;;;;;;;;;;5091364;28;19943;-66
2022/11/20 04:04:29;;;;;;;;;;;;;;;;;;5112250;27;19916;-66
2022/11/20 04:06:54;;;;;;;;;;;;;;;;;;5111769;28;19978;-66
2022/11/20 04:09:59;;;;;;;;;;;;;;;;;;5111581;27;19916;-66
2022/11/20 04:12:25;;;;;;;;;;;;;;;;;;5110400;28;20024;-66
2022/11/20 04:15:52;;;;;;;;;;;;;;;;;;5173749;27;20313;-66
2022/11/20 04:23:00;;;;;;;;;;;;;;;;;;5091435;27;19916;-66
2022/11/20 04:29:59;;;;;;;;;;;;;;;;;;5173609;27;20370;-66
2022/11/20 04:32:25;;;;;;;;;;;;;;;;;;5174075;27;19959;-66
2022/11/20 04:34:51;;;;;;;;;;;;;;;;;;5173727;27;19914;-66
2022/11/20 04:38:12;;;;;;;;;;;;;;;;;;5111406;27;20398;-68
2022/11/20 04:40:38;;;;;;;;;;;;;;;;;;5112310;28;20006;-68
2022/11/20 04:43:04;;;;;;;;;;;;;;;;;;5110390;28;19914;-66
2022/11/20 04:45:30;;;;;;;;;;;;;;;;;;5111248;28;19912;-66
2022/11/20 04:47:56;;;;;;;;;;;;;;;;;;5111630;28;19908;-66
2022/11/20 04:50:22;;;;;;;;;;;;;;;;;;5109941;28;19912;-66
2022/11/20 04:54:03;;;;;;;;;;;;;;;;;;5112096;27;19922;-66
2022/11/20 04:56:29;;;;;;;;;;;;;;;;;;5111775;28;20007;-66
2022/11/20 04:58:55;;;;;;;;;;;;;;;;;;5111454;28;20280;-66
2022/11/20 05:01:21;;;;;;;;;;;;;;;;;;5111699;28;19912;-66
2022/11/20 05:03:47;;;;;;;;;;;;;;;;;;5111571;28;20276;-66
2022/11/20 05:06:13;;;;;;;;;;;;;;;;;;5109960;28;19967;-66
2022/11/20 05:08:39;;;;;;;;;;;;;;;;;;5111606;28;19936;-66
2022/11/20 05:13:33;;;;;;;;;;;;;;;;;;5091586;27;20291;-66
2022/11/20 05:15:59;;;;;;;;;;;;;;;;;;5091408;28;20011;-66
2022/11/20 05:18:25;;;;;;;;;;;;;;;;;;5089667;28;19909;-66
2022/11/20 05:23:17;;;;;;;;;;;;;;;;;;5112413;27;20303;-66
2022/11/20 05:25:43;;;;;;;;;;;;;;;;;;5111535;28;20007;-66
2022/11/20 05:28:08;;;;;;;;;;;;;;;;;;5111764;28;19912;-66
2022/11/20 05:30:34;;;;;;;;;;;;;;;;;;5111631;28;19998;-66
2022/11/20 05:33:00;;;;;;;;;;;;;;;;;;5111178;28;19908;-66
2022/11/20 05:35:26;;;;;;;;;;;;;;;;;;5111792;28;19908;-66
2022/11/20 05:37:52;;;;;;;;;;;;;;;;;;5111604;28;19946;-66
2022/11/20 05:41:40;;;;;;;;;;;;;;;;;;5111381;27;20295;-66
2022/11/20 05:44:06;;;;;;;;;;;;;;;;;;5112273;28;20002;-66
2022/11/20 05:46:32;;;;;;;;;;;;;;;;;;5111281;28;19908;-65
2022/11/20 05:48:58;;;;;;;;;;;;;;;;;;5110477;28;20275;-66
2022/11/20 05:51:24;;;;;;;;;;;;;;;;;;5111532;28;19931;-66
2022/11/20 05:53:50;;;;;;;;;;;;;;;;;;5111212;28;20367;-66
2022/11/20 05:56:16;;;;;;;;;;;;;;;;;;5111576;28;20313;-66
2022/11/20 05:58:42;;;;;;;;;;;;;;;;;;5111538;28;20287;-66
2022/11/20 06:01:08;;;;;;;;;;;;;;;;;;5111022;28;19916;-66
2022/11/20 06:03:34;;;;;;;;;;;;;;;;;;5111412;28;20393;-66
2022/11/20 06:06:00;;;;;;;;;;;;;;;;;;5111492;28;20265;-66
2022/11/20 06:08:26;;;;;;;;;;;;;;;;;;5111111;28;19908;-66
2022/11/20 06:10:52;;;;;;;;;;;;;;;;;;5111811;28;19908;-66
2022/11/20 06:13:18;;;;;;;;;;;;;;;;;;5111258;28;19908;-66
2022/11/20 06:15:43;;;;;;;;;;;;;;;;;;5110783;28;19909;-66
2022/11/20 06:18:09;;;;;;;;;;;;;;;;;;5111171;28;19912;-66
2022/11/20 06:20:35;;;;;;;;;;;;;;;;;;5111015;28;19939;-66
2022/11/20 06:23:01;;;;;;;;;;;;;;;;;;5110646;28;19908;-66
2022/11/20 06:25:27;;;;;;;;;;;;;;;;;;5111013;28;19916;-66
2022/11/20 06:27:53;;;;;;;;;;;;;;;;;;5110952;28;19915;-66
2022/11/20 06:30:19;;;;;;;;;;;;;;;;;;5110517;28;19980;-66
2022/11/20 06:32:45;;;;;;;;;;;;;;;;;;5111038;28;19912;-66
2022/11/20 06:35:11;;;;;;;;;;;;;;;;;;5110872;28;19915;-66
2022/11/20 06:37:37;;;;;;;;;;;;;;;;;;5110390;28;20334;-66
2022/11/20 06:40:03;;;;;;;;;;;;;;;;;;5110478;28;19963;-66
2022/11/20 06:42:29;;;;;;;;;;;;;;;;;;5110738;28;19916;-66
2022/11/20 06:44:55;;;;;;;;;;;;;;;;;;5110216;28;19969;-66
2022/11/20 06:48:39;;;;;;;;;;;;;;;;;;5091548;28;19916;-66
2022/11/20 06:51:05;;;;;;;;;;;;;;;;;;5089730;28;20336;-66
2022/11/20 06:53:31;;;;;;;;;;;;;;;;;;5091298;28;19908;-67
2022/11/20 06:56:00;;;;;;;;;;;;;;;;;;5091423;28;19915;-67
2022/11/20 06:58:26;;;;;;;;;;;;;;;;;;5090937;28;19951;-67
2022/11/20 07:00:52;;;;;;;;;;;;;;;;;;5091249;28;19909;-66
2022/11/20 07:04:43;;;;;;;;;;;;;;;;;;5111875;27;20298;-67
2022/11/20 07:07:09;;;;;;;;;;;;;;;;;;5111746;28;20011;-67
2022/11/20 07:09:35;;;;;;;;;;;;;;;;;;5111772;28;19912;-67
2022/11/20 07:12:01;;;;;;;;;;;;;;;;;;5111364;28;19951;-67
2022/11/20 07:14:27;;;;;;;;;;;;;;;;;;5110369;28;19953;-68
2022/11/20 07:16:53;;;;;;;;;;;;;;;;;;5110305;28;19912;-67
2022/11/20 07:19:19;;;;;;;;;;;;;;;;;;5111216;28;19912;-67
2022/11/20 07:21:45;;;;;;;;;;;;;;;;;;5110169;28;19978;-67
2022/11/20 07:24:11;;;;;;;;;;;;;;;;;;5111378;28;19923;-67
2022/11/20 07:26:37;;;;;;;;;;;;;;;;;;5111008;28;19908;-67
2022/11/20 07:29:03;;;;;;;;;;;;;;;;;;5111595;28;19912;-67
2022/11/20 07:31:29;;;;;;;;;;;;;;;;;;5111314;28;20046;-67
2022/11/20 07:33:55;;;;;;;;;;;;;;;;;;5110940;28;19962;-67
2022/11/20 07:36:21;;;;;;;;;;;;;;;;;;5111247;28;19915;-67
2022/11/20 07:38:47;;;;;;;;;;;;;;;;;;5111508;28;19915;-67
2022/11/20 07:41:13;;;;;;;;;;;;;;;;;;5110728;28;20280;-66
2022/11/20 07:43:39;;;;;;;;;;;;;;;;;;5111077;28;20287;-67
2022/11/20 07:46:04;;;;;;;;;;;;;;;;;;5110645;28;19947;-67
2022/11/20 07:48:30;;;;;;;;;;;;;;;;;;5111411;28;19919;-68
2022/11/20 07:50:56;;;;;;;;;;;;;;;;;;5111059;28;20429;-67
2022/11/20 07:53:24;;;;;;;;;;;;;;;;;;5110749;28;19916;-68
2022/11/20 07:55:52;;;;;;;;;;;;;;;;;;5111021;28;19998;-68
2022/11/20 07:58:18;;;;;;;;;;;;;;;;;;5110915;28;19908;-68
2022/11/20 08:00:44;;;;;;;;;;;;;;;;;;5110353;28;19908;-68
2022/11/20 08:03:10;;;;;;;;;;;;;;;;;;5110382;28;19924;-67
2022/11/20 08:05:37;;;;;;;;;;;;;;;;;;5110645;28;19908;-67
2022/11/20 08:08:03;;;;;;;;;;;;;;;;;;5110358;28;19919;-67
2022/11/20 08:10:29;;;;;;;;;;;;;;;;;;5109300;28;20385;-67
2022/11/20 08:15:39;;;;;;;;;;;;;;;;;;5098737;28;20370;-67
2022/11/20 08:18:05;;;;;;;;;;;;;;;;;;5096812;28;19908;-67
2022/11/20 08:20:31;;;;;;;;;;;;;;;;;;5096783;28;20284;-67
2022/11/20 08:23:53;;;;;;;;;;;;;;;;;;5112328;27;19923;-67
2022/11/20 08:26:19;;;;;;;;;;;;;;;;;;5111780;28;19912;-67
2022/11/20 08:31:04;;;;;;;;;;;;;;;;;;5112097;27;19922;-68
2022/11/20 08:33:32;;;;;;;;;;;;;;;;;;5111924;28;20018;-68
2022/11/20 08:35:58;;;;;;;;;;;;;;;;;;5111354;28;20322;-67
2022/11/20 08:38:24;;;;;;;;;;;;;;;;;;5112279;28;19912;-67
2022/11/20 08:43:52;;;;;;;;;;;;;;;;;;5173455;27;19965;-66
2022/11/20 08:46:18;;;;;;;;;;;;;;;;;;5173670;27;19903;-67
2022/11/20 08:48:44;;;;;;;;;;;;;;;;;;5173735;27;19932;-67
2022/11/20 08:51:10;;;;;;;;;;;;;;;;;;5173215;27;19903;-67
2022/11/20 08:53:36;;;;;;;;;;;;;;;;;;5173772;27;20386;-67
2022/11/20 08:56:02;;;;;;;;;;;;;;;;;;5173857;27;19907;-68
2022/11/20 08:58:28;;;;;;;;;;;;;;;;;;5173102;27;19960;-68
2022/11/20 09:00:54;;;;;;;;;;;;;;;;;;5173358;27;20274;-67
2022/11/20 09:03:20;;;;;;;;;;;;;;;;;;5173318;27;19911;-68
2022/11/20 09:05:46;;;;;;;;;;;;;;;;;;5173345;27;19967;-67
2022/11/20 09:08:12;;;;;;;;;;;;;;;;;;5154666;27;19997;-67
2022/11/20 09:10:40;;;;;;;;;;;;;;;;;;5154255;27;20002;-66
2022/11/20 09:13:52;;;;;;;;;;;;;;;;;;5112556;27;20292;-66
2022/11/20 09:16:18;;;;;;;;;;;;;;;;;;5111795;28;20015;-68
2022/11/20 09:18:44;;;;;;;;;;;;;;;;;;5111269;28;19908;-67
2022/11/20 09:21:10;;;;;;;;;;;;;;;;;;5111778;28;19908;-67
2022/11/20 09:23:36;;;;;;;;;;;;;;;;;;5111573;28;19908;-67
2022/11/20 09:26:02;;;;;;;;;;;;;;;;;;5109986;28;19981;-68
2022/11/20 09:28:28;;;;;;;;;;;;;;;;;;5111562;28;19907;-68
2022/11/20 09:30:55;;;;;;;;;;;;;;;;;;5111517;28;19908;-68
2022/11/20 09:33:21;;;;;;;;;;;;;;;;;;5111032;28;19958;-67
2022/11/20 09:35:47;;;;;;;;;;;;;;;;;;5111413;28;19908;-68
2022/11/20 09:39:00;;;;;;;;;;;;;;;;;;5112179;27;19916;-68
2022/11/20 09:41:26;;;;;;;;;;;;;;;;;;5111733;28;20002;-66
2022/11/20 09:43:52;;;;;;;;;;;;;;;;;;5111954;28;19915;-67
2022/11/20 09:46:18;;;;;;;;;;;;;;;;;;5111467;28;20352;-68
2022/11/20 09:48:44;;;;;;;;;;;;;;;;;;5111597;28;20287;-67
2022/11/20 09:53:14;;;;;;;;;;;;;;;;;;5091700;27;20296;-67
2022/11/20 09:56:45;;;;;;;;;;;;;;;;;;5095946;27;2213302;-66
2022/11/20 09:59:11;;;;;;;;;;;;;;;;;;5173692;27;19911;-67
2022/11/20 10:01:38;;;;;;;;;;;;;;;;;;5173176;27;19932;-67
2022/11/20 10:04:04;;;;;;;;;;;;;;;;;;5154711;27;19998;-67
2022/11/20 10:06:30;;;;;;;;;;;;;;;;;;5173306;27;19903;-66
2022/11/20 10:08:56;;;;;;;;;;;;;;;;;;5172823;27;19915;-67
2022/11/20 10:11:23;;;;;;;;;;;;;;;;;;5173889;27;19991;-66
2022/11/20 10:13:49;;;;;;;;;;;;;;;;;;5173085;27;19907;-67
2022/11/20 10:16:15;;;;;;;;;;;;;;;;;;5173417;27;19922;-66
2022/11/20 10:18:41;;;;;;;;;;;;;;;;;;5173415;27;19907;-66
2022/11/20 10:23:09;;;;;;;;;;;;;;;;;;5091552;27;20012;-66
2022/11/20 10:25:35;;;;;;;;;;;;;;;;;;5091218;28;19919;-66
2022/11/20 10:28:01;;;;;;;;;;;;;;;;;;5091006;28;19909;-66
2022/11/20 10:30:27;;;;;;;;;;;;;;;;;;5091541;28;20276;-66
2022/11/20 10:32:53;;;;;;;;;;;;;;;;;;5089932;28;19908;-66
2022/11/20 10:35:19;;;;;;;;;;;;;;;;;;5090805;28;19959;-66
2022/11/20 10:39:49;;;;;;;;;;;;;;;;;;5091469;27;19918;-66
2022/11/20 10:42:15;;;;;;;;;;;;;;;;;;5090856;28;19999;-66
2022/11/20 10:47:25;;;;;;;;;;;;;;;;;;5091291;28;19915;-66
2022/11/20 10:51:29;;;;;;;;;;;;;;;;;;5091950;28;19916;-66
2022/11/20 10:53:55;;;;;;;;;;;;;;;;;;5091483;28;20007;-67
2022/11/20 11:01:01;;;;;;;;;;;;;;;;;;5051309;28;19923;-67
2022/11/20 11:03:27;;;;;;;;;;;;;;;;;;5050841;28;20005;-66
2022/11/20 11:08:23;;;;;;;;;;;;;;;;;;5112225;27;19916;-67
2022/11/20 11:10:49;;;;;;;;;;;;;;;;;;5111481;28;20010;-67
2022/11/20 11:13:15;;;;;;;;;;;;;;;;;;5111727;28;20343;-67
2022/11/20 11:15:41;;;;;;;;;;;;;;;;;;5111427;28;19908;-68
2022/11/20 11:18:34;;;;;;;;;;;;;;;;;;5091295;27;19946;-67
2022/11/20 11:22:01;;;;;;;;;;;;;;;;;;5111948;27;20284;-67
2022/11/20 11:27:56;;;;;;;;;;;;;;;;;;5091827;27;19916;-66
2022/11/20 11:30:21;;;;;;;;;;;;;;;;;;5091537;28;20361;-67
2022/11/20 11:32:47;;;;;;;;;;;;;;;;;;5091065;28;20034;-67
2022/11/20 11:35:57;;;;;;;;;;;;;;;;;;5092210;27;19923;-67
2022/11/20 11:38:23;;;;;;;;;;;;;;;;;;5090934;28;19912;-66
2022/11/20 11:40:49;;;;;;;;;;;;;;;;;;5091331;28;19908;-66
2022/11/20 11:46:11;;;;;;;;;;;;;;;;;;5091142;28;20316;-68
2022/11/20 11:48:37;;;;;;;;;;;;;;;;;;5091357;28;20376;-68
2022/11/20 11:51:02;;;;;;;;;;;;;;;;;;5091259;28;20432;-68
2022/11/20 11:53:28;;;;;;;;;;;;;;;;;;5089519;28;19974;-68
2022/11/20 11:55:54;;;;;;;;;;;;;;;;;;5091190;28;19908;-68
2022/11/20 12:00:45;;;;;;;;;;;;;;;;;;5091235;27;19923;-67
2022/11/20 12:03:11;;;;;;;;;;;;;;;;;;5091389;28;20429;-67
2022/11/20 12:07:38;;;;;;;;;;;;;;;;;;5091295;27;19916;-67
2022/11/20 12:18:20;;;;;;;;;;;;;;;;;;5091897;27;20388;-66
2022/11/20 12:22:18;;;;;;;;;;;;;;;;;;5091159;27;20009;-68
2022/11/20 12:24:44;;;;;;;;;;;;;;;;;;5091452;28;20011;-67
2022/11/20 12:28:43;;;;;;;;;;;;;;;;;;5152531;27;19998;-67
2022/11/20 12:31:09;;;;;;;;;;;;;;;;;;5153231;27;19912;-67
2022/11/20 12:33:35;;;;;;;;;;;;;;;;;;5134297;27;19907;-67
2022/11/20 12:36:01;;;;;;;;;;;;;;;;;;5152448;27;19917;-67
2022/11/20 12:38:27;;;;;;;;;;;;;;;;;;5152855;27;19911;-67
2022/11/20 12:40:53;;;;;;;;;;;;;;;;;;5134190;27;19907;-67
2022/11/20 12:46:19;;;;;;;;;;;;;;;;;;5091788;27;19923;-66
2022/11/20 12:48:45;;;;;;;;;;;;;;;;;;5091049;28;20030;-67
2022/11/20 12:54:38;;;;;;;;;;;;;;;;;;5091873;27;19917;-66
2022/11/20 12:57:03;;;;;;;;;;;;;;;;;;5091037;28;20427;-66
2022/11/20 13:02:57;;;;;;;;;;;;;;;;;;5112128;27;19918;-67
2022/11/20 13:08:54;;;;;;;;;;;;;;;;;;5112725;27;19916;-68
2022/11/20 13:11:20;;;;;;;;;;;;;;;;;;5111508;28;20282;-68
2022/11/20 13:14:43;;;;;;;;;;;;;;;;;;5091968;27;19939;-66
2022/11/20 13:17:09;;;;;;;;;;;;;;;;;;5089524;28;19912;-67
2022/11/20 13:20:08;;;;;;;;;;;;;;;;;;5111926;27;19922;-67
2022/11/20 13:22:34;;;;;;;;;;;;;;;;;;5111807;28;19998;-66
2022/11/20 13:28:01;;;;;;;;;;;;;;;;;;5153168;27;20349;-66
2022/11/20 13:30:27;;;;;;;;;;;;;;;;;;5153005;27;19959;-66
2022/11/20 13:32:53;;;;;;;;;;;;;;;;;;5152543;27;20311;-67
2022/11/20 13:35:19;;;;;;;;;;;;;;;;;;5152783;27;19960;-66
2022/11/20 13:37:45;;;;;;;;;;;;;;;;;;5153642;27;20387;-67
2022/11/20 13:40:11;;;;;;;;;;;;;;;;;;5154156;27;19907;-66
2022/11/20 13:42:37;;;;;;;;;;;;;;;;;;5152765;27;20002;-66
2022/11/20 13:45:14;;;;;;;;;;;;;;;;;;5111972;27;19916;-66
2022/11/20 13:50:00;;;;;;;;;;;;;;;;;;5091575;27;20312;-66
2022/11/20 13:52:26;;;;;;;;;;;;;;;;;;5091065;28;19952;-67
2022/11/20 13:54:52;;;;;;;;;;;;;;;;;;5089919;28;19951;-68
2022/11/20 13:59:20;;;;;;;;;;;;;;;;;;5091100;27;19923;-66
2022/11/20 14:05:14;;;;;;;;;;;;;;;;;;5152986;27;19917;-67
2022/11/20 14:07:40;;;;;;;;;;;;;;;;;;5152565;27;19963;-67
2022/11/20 14:10:06;;;;;;;;;;;;;;;;;;5152947;27;19973;-67
2022/11/20 14:12:32;;;;;;;;;;;;;;;;;;5152715;27;19911;-66
2022/11/20 14:14:58;;;;;;;;;;;;;;;;;;5152636;27;19946;-66
2022/11/20 14:17:25;;;;;;;;;;;;;;;;;;5152643;27;19908;-67
2022/11/20 14:19:51;;;;;;;;;;;;;;;;;;5134043;27;19908;-67
2022/11/20 14:22:19;;;;;;;;;;;;;;;;;;5152712;27;19914;-67
2022/11/20 14:24:45;;;;;;;;;;;;;;;;;;5152519;27;20374;-67
2022/11/20 14:27:11;;;;;;;;;;;;;;;;;;5152396;27;19959;-67
2022/11/20 14:29:37;;;;;;;;;;;;;;;;;;5152778;27;19907;-67
2022/11/20 14:32:03;;;;;;;;;;;;;;;;;;5152468;27;20384;-67
2022/11/20 14:34:29;;;;;;;;;;;;;;;;;;5133408;27;20320;-68
2022/11/20 14:36:55;;;;;;;;;;;;;;;;;;5133760;27;20279;-68
2022/11/20 14:39:21;;;;;;;;;;;;;;;;;;5133788;27;19907;-67
2022/11/20 14:41:47;;;;;;;;;;;;;;;;;;5152005;27;19960;-67
2022/11/20 14:44:13;;;;;;;;;;;;;;;;;;5152029;27;19916;-68
2022/11/20 14:49:09;;;;;;;;;;;;;;;;;;5091421;27;19922;-67
2022/11/20 14:51:36;;;;;;;;;;;;;;;;;;5091400;28;20007;-68
2022/11/20 14:55:34;;;;;;;;;;;;;;;;;;5091008;27;19917;-66
2022/11/20 14:58:00;;;;;;;;;;;;;;;;;;5091397;28;19912;-66
2022/11/20 15:00:26;;;;;;;;;;;;;;;;;;5091251;28;20265;-67
2022/11/20 15:02:52;;;;;;;;;;;;;;;;;;5090856;28;19908;-66
2022/11/20 15:05:18;;;;;;;;;;;;;;;;;;5091158;28;19954;-67
2022/11/20 15:07:47;;;;;;;;;;;;;;;;;;5091181;28;19916;-68
2022/11/20 15:10:13;;;;;;;;;;;;;;;;;;5089443;28;19908;-67
2022/11/20 15:12:39;;;;;;;;;;;;;;;;;;5091069;28;19908;-67
2022/11/20 15:15:05;;;;;;;;;;;;;;;;;;5090938;28;19938;-67
2022/11/20 15:17:31;;;;;;;;;;;;;;;;;;5090742;28;19909;-67
2022/11/20 15:19:57;;;;;;;;;;;;;;;;;;5091058;28;19908;-67
2022/11/20 15:22:23;;;;;;;;;;;;;;;;;;5090926;28;19915;-67
2022/11/20 15:24:49;;;;;;;;;;;;;;;;;;5089217;28;20368;-67
2022/11/20 15:27:15;;;;;;;;;;;;;;;;;;5089627;28;19909;-67
2022/11/20 15:29:41;;;;;;;;;;;;;;;;;;5090809;28;20352;-67
2022/11/20 15:32:55;;;;;;;;;;;;;;;;;;5091576;27;19923;-66
2022/11/20 15:35:21;;;;;;;;;;;;;;;;;;5091424;28;20001;-66
2022/11/20 15:37:47;;;;;;;;;;;;;;;;;;5089591;28;19908;-66
2022/11/20 15:40:13;;;;;;;;;;;;;;;;;;5091300;28;19908;-66
2022/11/20 15:43:02;;;;;;;;;;;;;;;;;;5091504;28;19916;-66
2022/11/20 15:45:25;;;;;;;;;;;;;;;;;;5090656;28;19912;-69
2022/11/20 15:47:51;;;;;;;;;;;;;;;;;;5091592;28;19916;-68
2022/11/20 15:50:17;;;;;;;;;;;;;;;;;;5091107;28;19908;-68
2022/11/20 15:52:43;;;;;;;;;;;;;;;;;;5090770;28;19928;-66
2022/11/20 15:55:09;;;;;;;;;;;;;;;;;;5091039;28;19908;-68
2022/11/20 15:57:34;;;;;;;;;;;;;;;;;;5091286;28;20121;-67
2022/11/20 16:00:00;;;;;;;;;;;;;;;;;;5090668;28;19909;-67
2022/11/20 16:02:26;;;;;;;;;;;;;;;;;;5090862;28;19908;-67
2022/11/20 16:04:52;;;;;;;;;;;;;;;;;;5089502;28;20433;-67
2022/11/20 16:07:18;;;;;;;;;;;;;;;;;;5090469;28;20273;-67
2022/11/20 16:09:44;;;;;;;;;;;;;;;;;;5090691;28;19999;-67
2022/11/20 16:15:44;;;;;;;;;;;;;;;;;;5090585;28;19916;-67
2022/11/20 16:17:44;;;;;;;;;;;;;;;;;;5090553;28;19914;-68
2022/11/20 16:20:10;;;;;;;;;;;;;;;;;;5090082;28;19908;-67
2022/11/20 16:22:35;;;;;;;;;;;;;;;;;;5090698;28;19915;-67
2022/11/20 16:25:01;;;;;;;;;;;;;;;;;;5090819;28;20365;-67
2022/11/20 16:27:31;;;;;;;;;;;;;;;;;;5089879;28;20280;-67
2022/11/20 16:29:57;;;;;;;;;;;;;;;;;;5090368;28;19909;-67
2022/11/20 16:32:23;;;;;;;;;;;;;;;;;;5106480;28;20424;-67
2022/11/20 16:34:49;;;;;;;;;;;;;;;;;;5110176;28;20356;-67
2022/11/20 16:37:15;;;;;;;;;;;;;;;;;;5110599;28;19956;-67
2022/11/20 16:39:41;;;;;;;;;;;;;;;;;;5110531;28;19908;-67
2022/11/20 16:42:06;;;;;;;;;;;;;;;;;;5109119;28;19912;-67
2022/11/20 16:45:59;;;;;;;;;;;;;;;;;;5051387;28;19923;-68
2022/11/20 16:48:25;;;;;;;;;;;;;;;;;;5049588;28;19913;-68
2022/11/20 16:50:51;;;;;;;;;;;;;;;;;;5049897;28;19909;-68
2022/11/20 16:53:17;;;;;;;;;;;;;;;;;;5051068;28;19909;-68
2022/11/20 16:55:43;;;;;;;;;;;;;;;;;;5050782;28;19909;-68
2022/11/20 16:58:09;;;;;;;;;;;;;;;;;;5050973;28;19951;-68
2022/11/20 17:00:35;;;;;;;;;;;;;;;;;;5051061;28;19952;-66
2022/11/20 17:03:01;;;;;;;;;;;;;;;;;;5049194;28;19909;-66
2022/11/20 17:05:27;;;;;;;;;;;;;;;;;;5049520;28;20373;-68
2022/11/20 17:07:53;;;;;;;;;;;;;;;;;;5050811;28;20300;-68
2022/11/20 17:10:19;;;;;;;;;;;;;;;;;;5050363;28;19913;-68
2022/11/20 17:12:45;;;;;;;;;;;;;;;;;;5049463;28;19909;-68
2022/11/20 17:15:11;;;;;;;;;;;;;;;;;;5050669;28;19916;-68
2022/11/20 17:17:36;;;;;;;;;;;;;;;;;;5048938;28;19917;-68
2022/11/20 17:20:02;;;;;;;;;;;;;;;;;;5050712;28;19964;-68
2022/11/20 17:22:28;;;;;;;;;;;;;;;;;;5049199;28;19915;-67
2022/11/20 17:24:54;;;;;;;;;;;;;;;;;;5049999;28;19917;-67
2022/11/20 17:27:20;;;;;;;;;;;;;;;;;;5050486;28;19909;-68
2022/11/20 17:29:46;;;;;;;;;;;;;;;;;;5050032;28;20383;-67
2022/11/20 17:32:12;;;;;;;;;;;;;;;;;;5049073;28;19915;-67
2022/11/20 17:34:38;;;;;;;;;;;;;;;;;;5050424;28;19916;-67
2022/11/20 17:37:04;;;;;;;;;;;;;;;;;;5048527;28;19913;-67
2022/11/20 17:39:30;;;;;;;;;;;;;;;;;;5050240;28;19955;-66
2022/11/20 17:44:41;;;;;;;;;;;;;;;;;;5059101;28;19928;-67
2022/11/20 17:47:07;;;;;;;;;;;;;;;;;;5069867;28;19909;-67
2022/11/20 17:51:34;;;;;;;;;;;;;;;;;;5091245;27;19922;-68
2022/11/20 17:54:00;;;;;;;;;;;;;;;;;;5091394;28;19966;-67
2022/11/20 17:59:11;;;;;;;;;;;;;;;;;;5090998;28;19969;-68
2022/11/20 18:01:38;;;;;;;;;;;;;;;;;;5089975;28;19916;-68
2022/11/20 18:05:55;;;;;;;;;;;;;;;;;;5091176;27;19912;-68
2022/11/20 18:08:21;;;;;;;;;;;;;;;;;;5091516;28;19912;-67
2022/11/20 18:10:47;;;;;;;;;;;;;;;;;;5091318;28;19916;-67
2022/11/20 18:13:13;;;;;;;;;;;;;;;;;;5090778;28;19919;-67
2022/11/20 18:15:39;;;;;;;;;;;;;;;;;;5091213;28;19948;-68
2022/11/20 18:18:05;;;;;;;;;;;;;;;;;;5089867;28;19943;-66
2022/11/20 18:20:31;;;;;;;;;;;;;;;;;;5090860;28;19912;-66
2022/11/20 18:22:57;;;;;;;;;;;;;;;;;;5089765;28;19916;-67
2022/11/20 18:25:23;;;;;;;;;;;;;;;;;;5090977;28;20337;-67
2022/11/20 18:27:49;;;;;;;;;;;;;;;;;;5090679;28;20003;-67
2022/11/20 18:30:15;;;;;;;;;;;;;;;;;;5090967;28;20003;-67
2022/11/20 18:32:41;;;;;;;;;;;;;;;;;;5091053;28;19912;-68
2022/11/20 18:35:07;;;;;;;;;;;;;;;;;;5090558;28;20269;-68
2022/11/20 18:37:33;;;;;;;;;;;;;;;;;;5090827;28;20383;-68
2022/11/20 18:39:59;;;;;;;;;;;;;;;;;;5090820;28;19915;-67
2022/11/20 18:45:29;;;;;;;;;;;;;;;;;;5088562;28;19921;-67
2022/11/20 18:47:55;;;;;;;;;;;;;;;;;;5088203;28;19914;-68
2022/11/20 18:50:22;;;;;;;;;;;;;;;;;;5089467;28;19909;-68
2022/11/20 18:52:47;;;;;;;;;;;;;;;;;;5089258;28;19909;-67
2022/11/20 18:55:13;;;;;;;;;;;;;;;;;;5090102;28;19912;-66
2022/11/20 18:57:39;;;;;;;;;;;;;;;;;;5090560;28;19959;-66
2022/11/20 19:00:06;;;;;;;;;;;;;;;;;;5090449;28;19916;-67
2022/11/20 19:02:31;;;;;;;;;;;;;;;;;;5089972;28;19909;-67
2022/11/20 19:04:57;;;;;;;;;;;;;;;;;;5088796;28;20028;-69
2022/11/20 19:07:23;;;;;;;;;;;;;;;;;;5090725;28;19909;-67
2022/11/20 19:09:49;;;;;;;;;;;;;;;;;;5089845;28;19915;-67
2022/11/20 19:12:16;;;;;;;;;;;;;;;;;;5090181;28;19908;-68
2022/11/20 19:14:42;;;;;;;;;;;;;;;;;;5090072;28;19909;-67
2022/11/20 19:17:09;;;;;;;;;;;;;;;;;;5076696;28;20368;-67
2022/11/20 19:19:36;;;;;;;;;;;;;;;;;;5075627;28;20363;-67
2022/11/20 19:22:02;;;;;;;;;;;;;;;;;;5076546;28;19912;-67
2022/11/20 19:24:28;;;;;;;;;;;;;;;;;;5075981;28;19962;-67
2022/11/20 19:26:54;;;;;;;;;;;;;;;;;;5076452;28;19908;-67
2022/11/20 19:29:20;;;;;;;;;;;;;;;;;;5075936;28;19924;-67
2022/11/20 19:31:46;;;;;;;;;;;;;;;;;;5076362;28;20387;-67
2022/11/20 19:34:12;;;;;;;;;;;;;;;;;;5076217;28;20296;-67
2022/11/20 19:36:38;;;;;;;;;;;;;;;;;;5075836;28;19909;-67
2022/11/20 19:39:05;;;;;;;;;;;;;;;;;;5076253;28;19908;-67
2022/11/20 19:41:31;;;;;;;;;;;;;;;;;;5076355;28;19913;-67
2022/11/20 19:43:57;;;;;;;;;;;;;;;;;;5074279;28;20257;-67
2022/11/20 19:46:23;;;;;;;;;;;;;;;;;;5076035;28;20321;-67